createdAt,value
2019-04-03T00:00:54.647Z,11.68
2019-04-03T00:03:29.222Z,11.75
2019-04-03T00:06:05.412Z,12.10
2019-04-03T00:08:39.794Z,12.03
2019-04-03T00:11:14.388Z,11.90
2019-04-03T00:13:48.886Z,13.62
2019-04-03T00:16:23.309Z,12.25
2019-04-03T00:18:57.851Z,13.48
2019-04-03T00:21:32.326Z,13.53
2019-04-03T00:24:07.346Z,12.95
2019-04-03T00:26:41.785Z,13.40
2019-04-03T00:29:16.263Z,14.75
2019-04-03T00:31:53.087Z,13.10
2019-04-03T00:34:26.782Z,13.28
2019-04-03T00:37:01.220Z,12.75
2019-04-03T00:39:35.782Z,12.82
2019-04-03T00:44:54.946Z,12.23
2019-04-03T00:47:29.468Z,12.23
2019-04-03T00:50:07.523Z,12.58
2019-04-03T00:52:41.965Z,11.35
2019-04-03T00:55:16.432Z,11.33
2019-04-03T00:57:50.873Z,12.00
2019-04-03T01:00:27.171Z,11.93
2019-04-03T01:03:01.810Z,11.40
2019-04-03T01:05:36.355Z,12.40
2019-04-03T01:08:10.801Z,12.25
2019-04-03T01:10:45.272Z,12.18
2019-04-03T01:13:19.706Z,11.83
2019-04-03T01:15:54.186Z,12.53
2019-04-03T01:18:28.850Z,11.57
2019-04-03T01:21:06.213Z,12.45
2019-04-03T01:23:39.549Z,11.68
2019-04-03T01:26:14.020Z,12.05
2019-04-03T01:28:48.449Z,12.18
2019-04-03T01:31:22.939Z,12.30
2019-04-03T01:33:57.371Z,11.45
2019-04-03T01:36:31.843Z,12.37
2019-04-03T01:39:06.935Z,11.78
2019-04-03T01:41:41.422Z,11.70
2019-04-03T01:44:15.868Z,12.13
2019-04-03T01:46:50.341Z,12.58
2019-04-03T01:49:24.784Z,11.43
2019-04-03T01:52:00.861Z,12.33
2019-04-03T01:54:35.322Z,11.60
2019-04-03T01:57:09.792Z,11.97
2019-04-03T01:59:44.242Z,12.40
2019-04-03T02:02:18.714Z,12.85
2019-04-03T02:04:53.122Z,12.25
2019-04-03T02:07:27.556Z,11.85
2019-04-03T02:10:03.306Z,12.18
2019-04-03T02:12:37.780Z,11.93
2019-04-03T02:15:12.211Z,10.98
2019-04-03T02:17:46.694Z,10.93
2019-04-03T02:20:21.191Z,11.60
2019-04-03T02:22:55.638Z,11.75
2019-04-03T02:25:32.178Z,11.00
2019-04-03T02:28:06.743Z,11.45
2019-04-03T02:30:45.010Z,11.18
2019-04-03T02:33:18.539Z,11.25
2019-04-03T02:35:53.356Z,11.10
2019-04-03T02:38:27.811Z,10.95
2019-04-03T02:41:03.996Z,11.50
2019-04-03T02:43:38.356Z,11.55
2019-04-03T02:46:12.800Z,10.05
2019-04-03T02:48:47.270Z,11.95
2019-04-03T02:51:21.787Z,11.45
2019-04-03T02:53:56.489Z,11.03
2019-04-03T02:56:31.115Z,11.10
2019-04-03T02:59:05.597Z,12.30
2019-04-03T03:01:40.712Z,11.55
2019-04-03T03:04:15.319Z,11.20
2019-04-03T03:06:49.750Z,11.70
2019-04-03T03:09:24.182Z,11.65
2019-04-03T03:11:59.313Z,11.30
2019-04-03T03:14:38.304Z,11.25
2019-04-03T03:17:12.380Z,11.55
2019-04-03T03:19:48.043Z,11.05
2019-04-03T03:22:22.509Z,10.18
2019-04-03T03:24:59.826Z,11.08
2019-04-03T03:27:33.744Z,9.65
2019-04-03T03:30:30.830Z,11.38
2019-04-03T03:32:44.914Z,10.75
2019-04-03T03:35:28.112Z,11.12
2019-04-03T03:37:56.322Z,10.93
2019-04-03T03:40:30.797Z,10.15
2019-04-03T03:43:06.287Z,10.18
2019-04-03T03:45:41.456Z,9.98
2019-04-03T03:48:16.414Z,9.83
2019-04-03T03:50:51.191Z,10.30
2019-04-03T03:53:25.784Z,9.88
2019-04-03T03:56:00.917Z,9.45
2019-04-03T03:58:35.591Z,8.95
2019-04-03T04:01:10.123Z,9.43
2019-04-03T04:03:44.829Z,10.38
2019-04-03T04:06:19.371Z,10.45
2019-04-03T04:08:53.756Z,10.25
2019-04-03T04:11:30.875Z,9.50
2019-04-03T04:14:04.997Z,9.03
2019-04-03T04:16:39.739Z,8.88
2019-04-03T04:19:15.633Z,8.73
2019-04-03T04:21:50.478Z,9.20
2019-04-03T04:24:45.030Z,8.58
2019-04-03T04:27:19.495Z,8.25
2019-04-03T04:29:54.558Z,8.23
2019-04-03T04:32:29.033Z,8.23
2019-04-03T04:35:05.678Z,7.58
2019-04-03T04:37:40.744Z,8.85
2019-04-03T04:40:15.369Z,8.80
2019-04-03T04:42:49.839Z,8.80
2019-04-03T04:45:24.280Z,9.38
2019-04-03T04:47:58.742Z,10.03
2019-04-03T04:50:33.183Z,10.18
2019-04-03T04:53:07.830Z,8.93
2019-04-03T04:55:42.291Z,8.65
2019-04-03T04:58:17.574Z,8.35
2019-04-03T05:00:53.493Z,9.30
2019-04-03T05:03:28.061Z,9.10
2019-04-03T05:06:03.082Z,9.08
2019-04-03T05:08:37.789Z,9.13
2019-04-03T05:11:12.117Z,8.93
2019-04-03T05:13:47.200Z,8.38
2019-04-03T05:16:24.445Z,9.30
2019-04-03T05:19:08.709Z,8.75
2019-04-03T05:21:34.077Z,8.83
2019-04-03T05:24:13.060Z,9.05
2019-04-03T05:26:44.663Z,10.08
2019-04-03T05:29:19.134Z,8.95
2019-04-03T05:31:53.592Z,8.55
2019-04-03T05:34:28.051Z,8.25
2019-04-03T05:37:02.484Z,8.03
2019-04-03T05:39:37.528Z,8.60
2019-04-03T05:42:12.008Z,8.45
2019-04-03T05:44:46.825Z,8.23
2019-04-03T05:47:21.250Z,9.23
2019-04-03T05:49:56.474Z,8.40
2019-04-03T05:52:31.035Z,8.33
2019-04-03T05:55:08.047Z,7.97
2019-04-03T05:57:44.808Z,8.68
2019-04-03T06:00:18.552Z,7.65
2019-04-03T06:02:53.729Z,8.33
2019-04-03T06:05:28.576Z,8.05
2019-04-03T06:08:05.933Z,7.58
2019-04-03T06:10:40.708Z,8.68
2019-04-03T06:13:16.912Z,8.08
2019-04-03T06:15:53.695Z,8.33
2019-04-03T06:18:31.199Z,9.15
2019-04-03T06:21:04.383Z,8.15
2019-04-03T06:23:38.878Z,7.87
2019-04-03T06:26:13.362Z,8.43
2019-04-03T06:28:49.597Z,8.33
2019-04-03T06:31:26.419Z,8.93
2019-04-03T06:34:01.588Z,8.33
2019-04-03T06:36:36.063Z,9.90
2019-04-03T06:39:10.492Z,9.80
2019-04-03T06:41:44.958Z,9.98
2019-04-03T06:44:22.053Z,10.05
2019-04-03T06:46:55.614Z,8.23
2019-04-03T06:49:30.100Z,8.65
2019-04-03T06:52:04.652Z,7.62
2019-04-03T06:54:39.083Z,7.80
2019-04-03T06:57:13.849Z,8.15
2019-04-03T06:59:49.254Z,7.58
2019-04-03T07:02:23.770Z,8.45
2019-04-03T07:04:58.208Z,7.83
2019-04-03T07:07:35.019Z,8.10
2019-04-03T07:10:09.810Z,7.40
2019-04-03T07:12:44.707Z,7.42
2019-04-03T07:15:19.134Z,7.65
2019-04-03T07:17:53.630Z,8.03
2019-04-03T07:20:28.064Z,7.47
2019-04-03T07:23:03.766Z,8.05
2019-04-03T07:25:38.249Z,7.42
2019-04-03T07:28:13.399Z,8.55
2019-04-03T07:30:47.882Z,7.42
2019-04-03T07:33:22.353Z,7.78
2019-04-03T07:36:01.584Z,7.80
2019-04-03T07:38:32.969Z,8.18
2019-04-03T07:41:07.404Z,8.83
2019-04-03T07:43:41.876Z,8.48
2019-04-03T07:46:16.319Z,8.88
2019-04-03T07:48:50.790Z,8.15
2019-04-03T07:51:25.227Z,8.98
2019-04-03T07:54:04.335Z,8.73
2019-04-03T07:56:38.050Z,8.73
2019-04-03T07:59:12.811Z,8.85
2019-04-03T08:01:47.224Z,9.55
2019-04-03T08:04:23.541Z,9.60
2019-04-03T08:06:58.045Z,9.93
2019-04-03T08:09:32.644Z,8.05
2019-04-03T08:12:07.095Z,10.18
2019-04-03T08:14:42.015Z,9.28
2019-04-03T08:17:16.687Z,8.60
2019-04-03T08:20:12.045Z,9.85
2019-04-03T08:22:46.491Z,9.95
2019-04-03T08:25:20.967Z,10.20
2019-04-03T08:27:55.785Z,10.08
2019-04-03T08:30:30.626Z,9.65
2019-04-03T08:33:15.082Z,9.48
2019-04-03T08:35:41.102Z,10.55
2019-04-03T08:38:15.514Z,10.00
2019-04-03T08:40:52.384Z,12.37
2019-04-03T08:43:27.130Z,10.68
2019-04-03T08:46:01.787Z,9.83
2019-04-03T08:48:36.235Z,9.18
2019-04-03T08:51:10.726Z,11.12
2019-04-03T08:53:45.166Z,10.48
2019-04-03T08:56:19.633Z,8.33
2019-04-03T08:58:54.864Z,10.23
2019-04-03T09:01:30.291Z,9.90
2019-04-03T09:04:04.806Z,9.33
2019-04-03T09:06:40.910Z,10.05
2019-04-03T09:09:15.918Z,9.70
2019-04-03T09:11:50.459Z,9.63
2019-04-03T09:14:25.560Z,9.68
2019-04-03T09:17:02.519Z,9.28
2019-04-03T09:19:36.649Z,9.93
2019-04-03T09:22:11.120Z,9.95
2019-04-03T09:24:45.563Z,9.55
2019-04-03T09:27:20.046Z,8.08
2019-04-03T09:29:54.490Z,9.15
2019-04-03T09:32:28.994Z,9.55
2019-04-03T09:35:04.025Z,10.03
2019-04-03T09:37:40.470Z,9.20
2019-04-03T09:40:16.857Z,9.58
2019-04-03T09:42:51.569Z,10.28
2019-04-03T09:45:28.198Z,9.78
2019-04-03T09:48:05.095Z,9.40
2019-04-03T09:50:39.254Z,9.00
2019-04-03T09:53:13.731Z,8.90
2019-04-03T09:55:48.175Z,10.48
2019-04-03T09:58:22.656Z,10.93
2019-04-03T10:00:57.164Z,9.55
2019-04-03T10:03:31.739Z,9.83
2019-04-03T10:06:06.230Z,9.63
2019-04-03T10:08:41.157Z,9.03
2019-04-03T10:11:17.841Z,8.53
2019-04-03T10:13:53.051Z,9.30
2019-04-03T10:16:27.494Z,8.35
2019-04-03T10:19:02.027Z,8.05
2019-04-03T10:21:36.520Z,9.15
2019-04-03T10:24:11.048Z,9.05
2019-04-03T10:26:45.489Z,8.98
2019-04-03T10:29:20.819Z,8.93
2019-04-03T10:31:56.153Z,8.78
2019-04-03T10:34:30.870Z,8.85
2019-04-03T10:37:05.374Z,9.25
2019-04-03T10:39:43.736Z,9.18
2019-04-03T10:42:16.020Z,8.63
2019-04-03T10:44:50.559Z,9.18
2019-04-03T10:47:30.231Z,8.05
2019-04-03T10:50:04.900Z,8.40
2019-04-03T10:52:43.479Z,8.08
2019-04-03T10:55:20.245Z,9.30
2019-04-03T10:57:54.741Z,9.50
2019-04-03T11:00:29.480Z,8.18
2019-04-03T11:03:04.369Z,8.63
2019-04-03T11:05:39.071Z,8.70
2019-04-03T11:08:13.817Z,8.68
2019-04-03T11:10:48.579Z,8.85
2019-04-03T11:13:23.036Z,8.55
2019-04-03T11:15:58.432Z,8.45
2019-04-03T11:18:33.707Z,9.83
2019-04-03T11:21:08.179Z,8.68
2019-04-03T11:23:45.333Z,8.80
2019-04-03T11:26:23.153Z,9.45
2019-04-03T11:28:55.627Z,9.08
2019-04-03T11:31:33.535Z,9.28
2019-04-03T11:34:06.221Z,9.13
2019-04-03T11:36:40.678Z,9.53
2019-04-03T11:39:17.930Z,9.33
2019-04-03T11:41:54.540Z,9.10
2019-04-03T11:44:29.188Z,8.30
2019-04-03T11:47:03.658Z,8.65
2019-04-03T11:49:38.168Z,8.85
2019-04-03T11:52:13.004Z,8.43
2019-04-03T11:54:47.486Z,8.75
2019-04-03T11:57:21.967Z,9.28
2019-04-03T11:59:57.091Z,8.33
2019-04-03T12:02:32.052Z,7.58
2019-04-03T12:05:07.034Z,7.87
2019-04-03T12:07:41.514Z,7.97
2019-04-03T12:10:16.086Z,8.73
2019-04-03T12:12:50.607Z,7.37
2019-04-03T12:15:25.044Z,8.00
2019-04-03T12:18:01.134Z,8.50
2019-04-03T12:20:35.574Z,8.88
2019-04-03T12:23:11.800Z,8.90
2019-04-03T12:25:48.014Z,8.40
2019-04-03T12:28:22.915Z,8.93
2019-04-03T12:30:57.373Z,8.70
2019-04-03T12:33:32.186Z,7.97
2019-04-03T12:36:07.294Z,8.18
2019-04-03T12:38:42.152Z,8.83
2019-04-03T12:41:16.728Z,9.00
2019-04-03T12:43:51.305Z,8.48
2019-04-03T12:46:40.740Z,9.48
2019-04-03T12:49:13.870Z,8.08
2019-04-03T12:51:48.343Z,8.45
2019-04-03T12:54:23.503Z,8.78
2019-04-03T12:57:00.242Z,8.53
2019-04-03T12:59:34.069Z,7.72
2019-04-03T13:02:08.512Z,8.35
2019-04-03T13:04:44.163Z,7.33
2019-04-03T13:07:20.464Z,7.80
2019-04-03T13:09:54.999Z,7.70
2019-04-03T13:12:29.393Z,7.42
2019-04-03T13:15:06.764Z,7.92
2019-04-03T13:17:44.114Z,8.15
2019-04-03T13:20:17.850Z,8.70
2019-04-03T13:22:52.343Z,7.97
2019-04-03T13:25:29.790Z,7.90
2019-04-03T13:28:04.827Z,8.40
2019-04-03T13:30:39.656Z,8.15
2019-04-03T13:33:17.325Z,8.00
2019-04-03T13:35:53.004Z,7.97
2019-04-03T13:38:28.849Z,7.10
2019-04-03T13:41:05.291Z,8.18
2019-04-03T13:43:39.585Z,8.78
2019-04-03T13:46:14.360Z,8.20
2019-04-03T13:48:48.860Z,9.00
2019-04-03T13:51:26.702Z,9.10
2019-04-03T13:54:01.022Z,8.93
2019-04-03T13:56:35.772Z,8.83
2019-04-03T13:59:10.193Z,9.58
2019-04-03T14:01:44.669Z,9.00
2019-04-03T14:04:22.736Z,9.33
2019-04-03T14:06:56.507Z,9.08
2019-04-03T14:09:30.956Z,8.80
2019-04-03T14:12:06.365Z,9.80
2019-04-03T14:14:43.315Z,9.50
2019-04-03T14:17:17.803Z,9.33
2019-04-03T14:19:52.861Z,9.23
2019-04-03T14:22:27.382Z,8.98
2019-04-03T14:25:01.813Z,9.93
2019-04-03T14:27:36.269Z,9.03
2019-04-03T14:30:11.986Z,9.70
2019-04-03T14:32:47.050Z,9.35
2019-04-03T14:35:45.210Z,9.65
2019-04-03T14:37:59.480Z,9.95
2019-04-03T14:40:33.908Z,9.33
2019-04-03T14:43:11.228Z,10.53
2019-04-03T14:45:46.097Z,10.82
2019-04-03T14:48:21.093Z,11.40
2019-04-03T14:50:55.568Z,18.10
2019-04-03T14:53:30.092Z,10.53
2019-04-03T14:56:06.226Z,10.05
2019-04-03T14:58:40.779Z,10.98
2019-04-03T15:01:15.416Z,11.18
2019-04-03T15:03:49.979Z,11.10
2019-04-03T15:06:24.514Z,10.82
2019-04-03T15:08:59.157Z,10.45
2019-04-03T15:11:34.950Z,10.93
2019-04-03T15:14:09.750Z,10.38
2019-04-03T15:16:44.202Z,10.98
2019-04-03T15:19:19.027Z,12.15
2019-04-03T15:22:01.007Z,11.20
2019-04-03T15:24:34.599Z,12.15
2019-04-03T15:27:12.247Z,12.20
2019-04-03T15:29:46.854Z,16.77
2019-04-03T15:32:21.601Z,12.18
2019-04-03T15:34:58.734Z,13.10
2019-04-03T15:37:32.488Z,11.65
2019-04-03T15:40:07.157Z,12.18
2019-04-03T15:42:41.976Z,12.82
2019-04-03T15:45:16.770Z,11.40
2019-04-03T15:47:55.033Z,10.65
2019-04-03T15:50:28.644Z,11.43
2019-04-03T15:53:03.620Z,12.37
2019-04-03T15:55:39.447Z,11.97
2019-04-03T15:58:14.087Z,11.73
2019-04-03T16:00:49.756Z,11.10
2019-04-03T16:03:24.391Z,11.78
2019-04-03T16:05:58.918Z,11.35
2019-04-03T16:08:33.570Z,10.45
2019-04-03T16:11:08.106Z,10.70
2019-04-03T16:13:42.906Z,11.35
2019-04-03T16:16:28.324Z,11.38
2019-04-03T16:19:04.246Z,10.40
2019-04-03T16:21:38.738Z,11.22
2019-04-03T16:24:13.994Z,10.25
2019-04-03T16:26:50.496Z,10.68
2019-04-03T16:29:25.255Z,12.07
2019-04-03T16:32:02.523Z,13.50
2019-04-03T16:34:41.638Z,14.35
2019-04-03T16:37:20.483Z,12.43
2019-04-03T16:39:54.785Z,11.85
2019-04-03T16:42:29.296Z,12.82
2019-04-03T16:45:08.246Z,13.43
2019-04-03T16:47:44.116Z,12.23
2019-04-03T16:50:17.666Z,12.15
2019-04-03T16:52:54.197Z,13.22
2019-04-03T16:55:30.768Z,13.18
2019-04-03T16:58:10.417Z,12.88
2019-04-03T17:00:44.846Z,12.05
2019-04-03T17:03:19.370Z,13.20
2019-04-03T17:05:54.179Z,12.58
2019-04-03T17:08:29.539Z,11.80
2019-04-03T17:11:07.994Z,11.88
2019-04-03T17:13:44.112Z,11.40
2019-04-03T17:16:18.712Z,12.45
2019-04-03T17:18:53.139Z,11.57
2019-04-03T17:21:34.089Z,12.10
2019-04-03T17:24:05.013Z,12.75
2019-04-03T17:26:49.771Z,14.55
2019-04-03T17:29:15.732Z,14.53
2019-04-03T17:31:51.872Z,14.65
2019-04-03T17:34:26.356Z,14.33
2019-04-03T17:37:00.860Z,13.25
2019-04-03T17:39:36.379Z,13.98
2019-04-03T17:42:10.837Z,14.28
2019-04-03T17:44:45.563Z,15.08
2019-04-03T17:47:21.975Z,15.23
2019-04-03T17:49:59.066Z,13.85
2019-04-03T17:52:32.322Z,13.43
2019-04-03T17:55:11.395Z,12.70
2019-04-03T17:57:45.856Z,11.65
2019-04-03T18:00:21.582Z,10.95
2019-04-03T18:02:56.064Z,10.60
2019-04-03T18:05:49.974Z,10.80
2019-04-03T18:08:24.498Z,11.60
2019-04-03T18:10:58.983Z,11.73
2019-04-03T18:13:34.112Z,12.93
2019-04-03T18:16:08.594Z,14.25
2019-04-03T18:18:43.614Z,15.28
2019-04-03T18:21:18.164Z,12.68
2019-04-03T18:23:53.286Z,12.47
2019-04-03T18:26:30.331Z,12.93
2019-04-03T18:29:06.659Z,12.33
2019-04-03T18:31:44.714Z,12.50
2019-04-03T18:34:21.157Z,14.13
2019-04-03T18:36:55.645Z,14.40
2019-04-03T18:39:31.741Z,15.30
2019-04-03T18:42:06.226Z,13.78
2019-04-03T18:44:40.728Z,13.20
2019-04-03T18:47:15.248Z,13.43
2019-04-03T18:49:49.699Z,13.20
2019-04-03T18:52:24.184Z,13.25
2019-04-03T18:54:58.785Z,12.30
2019-04-03T18:57:33.831Z,12.58
2019-04-03T19:00:09.158Z,12.40
2019-04-03T19:02:43.635Z,13.90
2019-04-03T19:05:18.083Z,12.30
2019-04-03T19:07:55.454Z,12.10
2019-04-03T19:10:28.626Z,12.55
2019-04-03T19:13:03.123Z,12.78
2019-04-03T19:15:39.783Z,12.30
2019-04-03T19:18:19.771Z,15.28
2019-04-03T19:20:53.458Z,17.10
2019-04-03T19:23:28.476Z,14.45
2019-04-03T19:26:03.494Z,17.20
2019-04-03T19:28:37.985Z,35.90
2019-04-03T19:31:12.439Z,23.07
2019-04-03T19:33:46.958Z,19.82
2019-04-03T19:36:22.119Z,14.60
2019-04-03T19:38:56.592Z,12.95
2019-04-03T19:41:31.032Z,12.98
2019-04-03T19:44:05.514Z,13.95
2019-04-03T19:46:40.034Z,14.28
2019-04-03T19:49:14.610Z,12.58
2019-04-03T19:51:49.637Z,11.05
2019-04-03T19:54:25.726Z,14.53
2019-04-03T19:57:00.953Z,12.70
2019-04-03T19:59:37.193Z,12.10
2019-04-03T20:02:13.272Z,14.35
2019-04-03T20:04:48.271Z,13.50
2019-04-03T20:07:22.906Z,12.75
2019-04-03T20:09:57.971Z,12.65
2019-04-03T20:12:32.576Z,10.28
2019-04-03T20:15:07.534Z,10.40
2019-04-03T20:17:41.993Z,10.35
2019-04-03T20:20:16.547Z,10.30
2019-04-03T20:22:50.984Z,10.20
2019-04-03T20:25:25.462Z,10.63
2019-04-03T20:27:59.981Z,10.05
2019-04-03T20:30:34.583Z,9.43
2019-04-03T20:33:11.511Z,9.65
2019-04-03T20:35:45.110Z,9.33
2019-04-03T20:38:19.546Z,9.95
2019-04-03T20:40:54.023Z,9.78
2019-04-03T20:43:28.470Z,9.83
2019-04-03T20:46:05.474Z,9.90
2019-04-03T20:48:39.919Z,10.35
2019-04-03T20:51:14.351Z,9.68
2019-04-03T20:53:50.264Z,9.48
2019-04-03T20:56:24.861Z,10.25
2019-04-03T20:58:59.340Z,10.18
2019-04-03T21:01:35.424Z,10.82
2019-04-03T21:04:10.400Z,10.63
2019-04-03T21:06:44.949Z,10.03
2019-04-03T21:09:22.135Z,10.23
2019-04-03T21:11:57.940Z,9.83
2019-04-03T21:14:32.931Z,9.60
2019-04-03T21:17:07.402Z,9.78
2019-04-03T21:19:41.838Z,10.20
2019-04-03T21:22:16.372Z,9.90
2019-04-03T21:24:50.802Z,10.45
2019-04-03T21:27:25.285Z,11.18
2019-04-03T21:30:00.363Z,10.13
2019-04-03T21:32:34.802Z,10.10
2019-04-03T21:35:09.249Z,10.58
2019-04-03T21:37:43.764Z,9.23
2019-04-03T21:40:18.315Z,10.43
2019-04-03T21:42:52.788Z,10.90
2019-04-03T21:45:27.239Z,11.18
2019-04-03T21:48:01.731Z,10.53
2019-04-03T21:50:36.186Z,11.12
2019-04-03T21:53:10.719Z,10.13
2019-04-03T21:55:45.168Z,10.10
2019-04-03T21:58:19.650Z,9.85
2019-04-03T22:00:59.873Z,10.55
2019-04-03T22:03:34.339Z,7.33
2019-04-03T22:06:08.782Z,10.30
2019-04-03T22:08:43.290Z,10.38
2019-04-03T22:11:18.290Z,9.38
2019-04-03T22:13:52.822Z,9.53
2019-04-03T22:16:27.331Z,10.28
2019-04-03T22:19:01.815Z,10.40
2019-04-03T22:21:36.257Z,9.68
2019-04-03T22:24:10.740Z,10.98
2019-04-03T22:26:45.182Z,10.00
2019-04-03T22:29:20.436Z,10.28
2019-04-03T22:31:55.015Z,10.15
2019-04-03T22:34:29.907Z,10.60
2019-04-03T22:37:05.025Z,9.83
2019-04-03T22:39:39.693Z,9.55
2019-04-03T22:42:15.047Z,10.15
2019-04-03T22:44:50.059Z,9.98
2019-04-03T22:47:25.074Z,10.53
2019-04-03T22:50:00.177Z,10.10
2019-04-03T22:52:34.625Z,10.55
2019-04-03T22:55:10.727Z,11.57
2019-04-03T22:57:46.863Z,10.38
2019-04-03T23:00:22.005Z,10.53
2019-04-03T23:02:56.460Z,9.78
2019-04-03T23:05:30.934Z,10.28
2019-04-03T23:08:05.940Z,9.78
2019-04-03T23:10:40.429Z,10.78
2019-04-03T23:13:14.938Z,10.18
2019-04-03T23:15:49.417Z,9.75
2019-04-03T23:18:23.930Z,10.50
2019-04-03T23:20:59.044Z,9.73
2019-04-03T23:23:33.548Z,10.45
2019-04-03T23:26:09.098Z,9.95
2019-04-03T23:28:43.547Z,9.70
2019-04-03T23:31:18.024Z,9.75
2019-04-03T23:33:52.547Z,9.53
2019-04-03T23:36:27.011Z,9.63
2019-04-03T23:39:02.128Z,9.68
2019-04-03T23:41:37.024Z,10.15
2019-04-03T23:44:12.150Z,9.93
2019-04-03T23:46:46.789Z,9.90
2019-04-03T23:49:21.248Z,10.82
2019-04-03T23:51:57.059Z,11.25
2019-04-03T23:54:34.017Z,10.40
2019-04-03T23:57:09.699Z,9.93
2019-04-03T23:59:44.976Z,10.28
